New York, New York
Traffic Map
Current Weather Conditions
New York, New York
Clear
Clear
31°
Feels Like: 31°
Wind Chill: 31° Ceiling: Unl
Heat Index: 31° Visibility: 10mi
Dew Point: 12° Wind: 0mph
Humidity: 46% Direction: ° ()
Pressure: 30.26in Gusts: 0mph
Raw Report DataKNYC 282351Z AUTO 00000KT 10SM CLR M01/M11 A3026 RMK AO2 SLP241 T10061111 10022 21006 51020 $
Traffic Incident Summary
Active as of:
Severity:
Category:
InformationThere was an issue retrieving the traffic information for this location. Please try a different location or try again shortly.
Advertisements
Track Severe Weather on mobile